Main page
METAR-TAF:

METAR-TAF

Airports :

Beirut Air Base

Beirut, Lebanon

latitude: 33-49N, longitude: 035-29E, elevation: 29 m

Current weather observation

The report was made 1 hour and 3 minutes ago, at 02:00 UTC
Wind 7 kt from the Southeast
Temperature 13°C
Humidity 72%
Pressure 1021 hPa
Visibility 10 km or more
Few clouds at a height of 3000 ft

METAR: OLBA 230200Z 14007KT 9999 FEW030 13/08 Q1021 NOSIG

Time: 06:03 (03:03 UTC)

Forecast

The report was made 5 hours and 3 minutes ago, at 22:00 UTC
Forecast valid from 23 at 00 UTC to 24 at 06 UTC
Wind 4 kt from the East/Southeast
Visibility 10 km or more
Few clouds at a height of 2600 ft
Becoming
from 23 at 06 UTC to 23 at 08 UTC
Wind 12 kt from the Northwest
Becoming
from 23 at 16 UTC to 23 at 18 UTC
Wind 3 kt from the East
Visibility 10 km or more
no clouds below 1500 m and no cumulonimbus

TAF: OLBA 222200Z 2300/2406 12004KT 9999 FEW026 BECMG 2306/2308 32012KT BECMG 2316/2318 10003KT CAVOK

Weather observations and forecasts of more than 4000 airports (METAR and TAF reports).

The available stations are represented by yellow and red dots on the map.

Hover mouse over dot to see the name of the station.

Then click to see weather observations and forecasts.

To change the map : click on the green buttons with a black cross to zoom in, on the green button with a dash to zoom out, or on the green arrows for adjacent maps.


METAR-TAF: